createdAt,value
2023-04-17T00:03:12.280Z,8.10
2023-04-17T00:05:39.804Z,7.90
2023-04-17T00:08:07.561Z,7.90
2023-04-17T00:10:34.856Z,8.00
2023-04-17T00:13:01.969Z,8.10
2023-04-17T00:15:29.209Z,8.10
2023-04-17T00:17:57.016Z,8.20
2023-04-17T00:25:29.021Z,8.20
2023-04-17T00:27:56.205Z,8.00
2023-04-17T00:30:23.421Z,8.00
2023-04-17T00:32:50.727Z,8.10
2023-04-17T00:35:18.093Z,8.20
2023-04-17T00:37:45.633Z,8.10
2023-04-17T00:40:13.565Z,8.00
2023-04-17T00:47:45.711Z,8.00
2023-04-17T00:50:13.321Z,8.20
2023-04-17T00:52:41.075Z,8.30
2023-04-17T00:55:08.482Z,8.30
2023-04-17T00:57:35.692Z,8.20
2023-04-17T01:00:03.919Z,8.10
2023-04-17T01:02:31.396Z,8.30
2023-04-17T01:07:54.904Z,8.10
2023-04-17T01:10:22.131Z,8.10
2023-04-17T01:13:02.116Z,8.10
2023-04-17T01:15:29.732Z,8.20
2023-04-17T01:17:57.261Z,8.40
2023-04-17T01:20:25.485Z,8.50
2023-04-17T01:22:53.798Z,8.40
2023-04-17T01:30:27.823Z,8.30
2023-04-17T01:32:55.197Z,8.20
2023-04-17T01:35:23.672Z,8.20
2023-04-17T01:37:51.674Z,8.30
2023-04-17T01:40:19.110Z,8.10
2023-04-17T01:42:46.332Z,8.00
2023-04-17T01:45:13.361Z,7.90
2023-04-17T01:52:45.530Z,7.80
2023-04-17T01:55:12.832Z,8.20
2023-04-17T01:57:40.616Z,8.10
2023-04-17T02:00:10.360Z,8.20
2023-04-17T02:02:38.395Z,8.30
2023-04-17T02:05:06.662Z,8.20
2023-04-17T02:07:34.143Z,8.00
2023-04-17T02:15:09.289Z,7.70
2023-04-17T02:17:36.322Z,7.80
2023-04-17T02:20:06.501Z,7.80
2023-04-17T02:22:34.405Z,7.80
2023-04-17T02:25:01.642Z,7.90
2023-04-17T02:27:29.344Z,7.70
2023-04-17T02:29:56.689Z,7.90
2023-04-17T02:37:36.657Z,7.80
2023-04-17T02:40:06.141Z,8.00
2023-04-17T02:42:33.366Z,7.90
2023-04-17T02:45:00.652Z,7.80
2023-04-17T02:47:27.880Z,7.70
2023-04-17T02:49:55.732Z,7.60
2023-04-17T02:52:26.178Z,7.70
2023-04-17T02:59:58.766Z,7.60
2023-04-17T03:02:26.065Z,7.50
2023-04-17T03:04:53.415Z,7.50
2023-04-17T03:07:23.537Z,7.60
2023-04-17T03:09:53.794Z,7.60
2023-04-17T03:12:21.165Z,7.50
2023-04-17T03:14:48.447Z,7.50
2023-04-17T03:20:26.709Z,7.60
2023-04-17T03:22:53.668Z,7.60
2023-04-17T03:25:21.049Z,7.60
2023-04-17T03:27:48.983Z,7.50
2023-04-17T03:30:19.023Z,7.50
2023-04-17T03:32:46.481Z,7.50
2023-04-17T03:35:14.222Z,7.50
2023-04-17T03:42:47.458Z,7.60
2023-04-17T03:45:25.224Z,7.60
2023-04-17T03:47:52.240Z,7.60
2023-04-17T03:50:20.345Z,7.50
2023-04-17T03:52:49.147Z,7.70
2023-04-17T03:55:16.883Z,7.60
2023-04-17T03:57:44.106Z,7.50
2023-04-17T04:00:13.809Z,7.50
2023-04-17T04:07:42.062Z,7.60
2023-04-17T04:10:10.143Z,7.70
2023-04-17T04:12:37.395Z,7.90
2023-04-17T04:15:05.856Z,7.90
2023-04-17T04:17:33.392Z,7.90
2023-04-17T04:20:00.780Z,7.70
2023-04-17T04:22:34.304Z,7.80
2023-04-17T04:30:10.930Z,7.70
2023-04-17T04:32:38.540Z,7.50
2023-04-17T04:35:07.033Z,7.50
2023-04-17T04:37:35.468Z,7.40
2023-04-17T04:40:09.942Z,7.30
2023-04-17T04:42:39.553Z,7.30
2023-04-17T04:48:05.192Z,7.50
2023-04-17T04:50:32.401Z,7.60
2023-04-17T04:52:59.648Z,7.60
2023-04-17T04:55:27.541Z,7.60
2023-04-17T04:57:54.915Z,7.60
2023-04-17T05:00:23.187Z,7.80
2023-04-17T05:02:50.738Z,7.60
2023-04-17T05:10:25.132Z,7.80
2023-04-17T05:12:52.789Z,7.70
2023-04-17T05:15:20.085Z,7.60
2023-04-17T05:17:47.331Z,7.70
2023-04-17T05:20:15.392Z,7.70
2023-04-17T05:22:42.861Z,7.80
2023-04-17T05:25:10.443Z,7.80
2023-04-17T05:32:48.236Z,7.40
2023-04-17T05:35:15.552Z,7.30
2023-04-17T05:37:43.221Z,7.20
2023-04-17T05:40:11.676Z,7.30
2023-04-17T05:42:38.905Z,7.00
2023-04-17T05:45:06.807Z,6.90
2023-04-17T05:47:33.895Z,7.00
2023-04-17T05:52:40.937Z,7.50
2023-04-17T05:55:08.860Z,7.60
2023-04-17T05:57:36.492Z,7.40
2023-04-17T06:00:10.122Z,7.40
2023-04-17T06:02:38.605Z,7.50
2023-04-17T06:05:07.603Z,7.80
2023-04-17T06:07:36.135Z,7.70
2023-04-17T06:15:09.780Z,7.70
2023-04-17T06:17:38.025Z,7.70
2023-04-17T06:20:09.749Z,7.50
2023-04-17T06:22:36.994Z,7.50
2023-04-17T06:25:04.250Z,7.40
2023-04-17T06:27:31.598Z,7.50
2023-04-17T06:29:59.143Z,7.60
2023-04-17T06:37:33.002Z,7.60
2023-04-17T06:40:00.852Z,7.80
2023-04-17T06:42:39.024Z,7.90
2023-04-17T06:45:07.635Z,7.80
2023-04-17T06:47:34.579Z,7.80
2023-04-17T06:50:01.651Z,7.90
2023-04-17T06:52:28.629Z,8.00
2023-04-17T07:00:07.598Z,8.00
2023-04-17T07:02:35.004Z,8.10
2023-04-17T07:05:05.978Z,8.10
2023-04-17T07:07:34.065Z,8.10
2023-04-17T07:10:01.124Z,7.90
2023-04-17T07:12:31.529Z,8.10
2023-04-17T07:14:58.774Z,8.30
2023-04-17T07:22:31.632Z,7.90
2023-04-17T07:24:59.174Z,7.90
2023-04-17T07:27:26.803Z,8.00
2023-04-17T07:29:54.870Z,7.80
2023-04-17T07:32:23.616Z,7.90
2023-04-17T07:34:50.985Z,8.00
2023-04-17T07:37:18.259Z,7.90
2023-04-17T07:44:56.439Z,7.80
2023-04-17T07:47:24.052Z,8.00
2023-04-17T07:49:51.391Z,8.00
2023-04-17T07:52:18.546Z,8.20
2023-04-17T07:54:47.054Z,8.20
2023-04-17T07:57:15.473Z,8.20
2023-04-17T07:59:42.610Z,8.10
2023-04-17T08:07:43.053Z,8.20
2023-04-17T08:10:11.050Z,8.30
2023-04-17T08:12:38.940Z,8.30
2023-04-17T08:15:07.154Z,8.30
2023-04-17T08:17:36.820Z,8.10
2023-04-17T08:20:11.525Z,8.10
2023-04-17T08:22:44.490Z,8.00
2023-04-17T08:29:27.326Z,8.40
2023-04-17T08:32:06.820Z,8.60
2023-04-17T08:34:39.592Z,8.90
2023-04-17T08:37:06.825Z,8.90
2023-04-17T08:39:34.326Z,8.60
2023-04-17T08:42:06.907Z,8.30
2023-04-17T08:47:25.656Z,8.20
2023-04-17T08:49:57.870Z,8.40
2023-04-17T08:52:25.020Z,8.40
2023-04-17T08:54:55.574Z,8.60
2023-04-17T08:57:23.740Z,8.90
2023-04-17T08:59:51.008Z,9.10
2023-04-17T09:02:18.836Z,8.90
2023-04-17T09:09:56.745Z,9.10
2023-04-17T09:12:25.378Z,9.80
2023-04-17T09:14:53.225Z,9.90
2023-04-17T09:17:22.539Z,10.00
2023-04-17T09:20:06.792Z,10.10
2023-04-17T09:22:34.353Z,9.70
2023-04-17T09:25:03.082Z,9.60
2023-04-17T09:31:53.561Z,9.70
2023-04-17T09:34:21.349Z,9.60
2023-04-17T09:36:55.293Z,10.00
2023-04-17T09:39:24.344Z,10.10
2023-04-17T09:42:02.974Z,10.00
2023-04-17T09:44:30.828Z,9.90
2023-04-17T09:47:01.661Z,9.80
2023-04-17T09:49:34.503Z,10.10
2023-04-17T09:55:12.206Z,9.40
2023-04-17T09:57:41.432Z,9.50
2023-04-17T10:00:14.381Z,9.60
2023-04-17T10:02:43.283Z,9.70
2023-04-17T10:05:11.650Z,9.70
2023-04-17T10:07:40.040Z,9.50
2023-04-17T10:10:10.408Z,9.50
2023-04-17T10:17:43.822Z,10.00
2023-04-17T10:20:34.882Z,10.40
2023-04-17T10:23:32.227Z,10.30
2023-04-17T10:26:41.293Z,10.40
2023-04-17T10:29:09.380Z,10.10
2023-04-17T10:32:25.177Z,9.80
2023-04-17T10:40:20.379Z,10.00
2023-04-17T10:43:03.209Z,9.90
2023-04-17T10:45:56.287Z,10.30
2023-04-17T10:48:28.415Z,10.70
2023-04-17T10:50:58.068Z,11.10
2023-04-17T10:53:42.272Z,11.30
2023-04-17T10:56:11.968Z,11.60
2023-04-17T11:03:47.025Z,11.90
2023-04-17T11:06:14.641Z,11.20
2023-04-17T11:08:42.972Z,10.60
2023-04-17T11:11:11.346Z,10.20
2023-04-17T11:13:41.750Z,10.40
2023-04-17T11:16:09.548Z,10.40
2023-04-17T11:18:37.844Z,10.40
2023-04-17T11:23:51.652Z,10.80
2023-04-17T11:26:19.936Z,11.80
2023-04-17T11:28:47.726Z,11.80
2023-04-17T11:31:17.225Z,11.50
2023-04-17T11:33:48.553Z,11.30
2023-04-17T11:36:15.852Z,10.80
2023-04-17T11:38:47.415Z,10.70
2023-04-17T11:46:14.809Z,10.60
2023-04-17T11:48:42.332Z,10.70
2023-04-17T11:51:09.424Z,10.70
2023-04-17T11:53:37.292Z,10.40
2023-04-17T11:56:15.397Z,10.20
2023-04-17T11:58:49.826Z,10.30
2023-04-17T12:01:20.237Z,10.30
2023-04-17T12:08:55.328Z,10.20
2023-04-17T12:11:33.500Z,10.30
2023-04-17T12:14:03.265Z,10.10
2023-04-17T12:16:31.106Z,10.00
2023-04-17T12:18:58.636Z,10.10
2023-04-17T12:21:26.575Z,10.50
2023-04-17T12:23:58.632Z,10.70
2023-04-17T12:31:32.557Z,10.70
2023-04-17T12:33:59.639Z,10.70
2023-04-17T12:36:27.427Z,10.90
2023-04-17T12:38:54.444Z,10.90
2023-04-17T12:41:21.767Z,10.80
2023-04-17T12:43:49.377Z,11.10
2023-04-17T12:46:17.822Z,11.60
2023-04-17T12:53:52.616Z,11.80
2023-04-17T12:56:21.804Z,11.90
2023-04-17T12:58:49.320Z,12.10
2023-04-17T13:01:25.850Z,12.10
2023-04-17T13:03:53.320Z,12.10
2023-04-17T13:06:21.327Z,12.00
2023-04-17T13:11:27.441Z,12.00
2023-04-17T13:13:54.450Z,12.30
2023-04-17T13:16:22.998Z,12.50
2023-04-17T13:18:50.203Z,12.50
2023-04-17T13:21:17.424Z,12.40
2023-04-17T13:23:44.675Z,12.50
2023-04-17T13:26:14.182Z,12.50
2023-04-17T13:33:41.807Z,12.70
2023-04-17T13:36:09.005Z,12.80
2023-04-17T13:38:36.751Z,12.90
2023-04-17T13:41:03.934Z,13.00
2023-04-17T13:43:30.781Z,13.00
2023-04-17T13:45:58.183Z,13.10
2023-04-17T13:48:32.563Z,13.30
2023-04-17T13:56:07.833Z,13.40
2023-04-17T13:58:36.384Z,13.40
2023-04-17T14:01:04.932Z,13.60
2023-04-17T14:03:38.277Z,13.70
2023-04-17T14:06:07.854Z,13.30
2023-04-17T14:08:35.775Z,13.40
2023-04-17T14:11:03.244Z,13.50
2023-04-17T14:18:35.638Z,13.50
2023-04-17T14:21:02.928Z,13.80
2023-04-17T14:23:30.238Z,13.70
2023-04-17T14:25:58.520Z,13.90
2023-04-17T14:28:26.384Z,13.80
2023-04-17T14:30:53.607Z,13.70
2023-04-17T14:41:09.179Z,13.90
2023-04-17T14:43:36.384Z,13.90
2023-04-17T14:46:05.141Z,14.00
2023-04-17T14:48:36.245Z,14.40
2023-04-17T14:51:13.785Z,14.00
2023-04-17T14:53:41.329Z,13.70
2023-04-17T14:56:12.879Z,13.80
2023-04-17T15:01:42.612Z,13.80
2023-04-17T15:04:10.007Z,13.80
2023-04-17T15:06:40.578Z,13.80
2023-04-17T15:09:08.519Z,13.80
2023-04-17T15:11:36.232Z,13.90
2023-04-17T15:14:07.225Z,14.00
2023-04-17T15:16:34.555Z,13.40
2023-04-17T15:22:01.320Z,13.10
2023-04-17T15:24:28.778Z,12.70
2023-04-17T15:26:56.836Z,12.70
2023-04-17T15:29:24.643Z,13.00
2023-04-17T15:31:53.197Z,13.40
2023-04-17T15:34:21.147Z,13.00
2023-04-17T15:36:49.327Z,12.60
2023-04-17T15:44:22.317Z,11.80
2023-04-17T15:46:50.220Z,11.50
2023-04-17T15:49:17.672Z,11.50
2023-04-17T15:51:45.147Z,11.50
2023-04-17T15:54:12.770Z,11.40
2023-04-17T15:56:40.542Z,11.50
2023-04-17T15:59:08.132Z,11.40
2023-04-17T16:07:25.546Z,11.30
2023-04-17T16:09:53.431Z,11.30
2023-04-17T16:12:20.419Z,11.30
2023-04-17T16:14:48.730Z,11.40
2023-04-17T16:17:16.466Z,11.40
2023-04-17T16:19:43.631Z,11.50
2023-04-17T16:22:10.691Z,11.70
2023-04-17T16:29:45.942Z,11.60
2023-04-17T16:32:15.166Z,11.80
2023-04-17T16:34:42.532Z,11.80
2023-04-17T16:37:09.509Z,11.90
2023-04-17T16:39:36.817Z,12.10
2023-04-17T16:42:03.871Z,12.30
2023-04-17T16:44:30.728Z,11.90
2023-04-17T16:52:03.487Z,11.60
2023-04-17T16:54:34.167Z,11.90
2023-04-17T16:57:01.211Z,11.80
2023-04-17T16:59:28.456Z,11.70
2023-04-17T17:01:55.925Z,11.60
2023-04-17T17:04:23.295Z,11.80
2023-04-17T17:06:50.572Z,11.90
2023-04-17T17:14:18.508Z,12.00
2023-04-17T17:16:45.908Z,12.30
2023-04-17T17:19:15.543Z,12.40
2023-04-17T17:21:42.784Z,12.40
2023-04-17T17:24:09.738Z,12.50
2023-04-17T17:26:37.205Z,12.40
2023-04-17T17:29:16.970Z,12.60
2023-04-17T17:36:52.977Z,12.50
2023-04-17T17:39:21.115Z,12.10
2023-04-17T17:41:48.612Z,12.20
2023-04-17T17:44:15.942Z,12.00
2023-04-17T17:46:46.825Z,12.10
2023-04-17T17:49:14.350Z,12.00
2023-04-17T17:51:44.534Z,11.90
2023-04-17T17:57:06.342Z,11.90
2023-04-17T17:59:36.970Z,11.80
2023-04-17T18:02:08.289Z,11.90
2023-04-17T18:04:39.636Z,12.00
2023-04-17T18:07:07.563Z,11.90
2023-04-17T18:09:34.882Z,11.80
2023-04-17T18:12:03.276Z,12.10
2023-04-17T18:17:12.801Z,11.60
2023-04-17T18:19:41.444Z,11.30
2023-04-17T18:22:11.245Z,11.40
2023-04-17T18:24:38.581Z,11.40
2023-04-17T18:27:05.962Z,11.30
2023-04-17T18:29:34.388Z,11.30
2023-04-17T18:32:03.743Z,11.30
2023-04-17T18:39:39.199Z,10.90
2023-04-17T18:42:06.623Z,10.60
2023-04-17T18:44:34.020Z,10.60
2023-04-17T18:47:01.376Z,10.50
2023-04-17T18:49:28.684Z,10.30
2023-04-17T18:51:56.106Z,10.30
2023-04-17T18:54:24.275Z,10.30
2023-04-17T18:56:52.627Z,10.20
2023-04-17T19:04:26.791Z,10.30
2023-04-17T19:06:54.292Z,10.30
2023-04-17T19:09:22.014Z,10.10
2023-04-17T19:11:49.475Z,10.10
2023-04-17T19:14:16.522Z,10.40
2023-04-17T19:16:45.802Z,10.40
2023-04-17T19:19:15.429Z,10.50
2023-04-17T19:26:42.119Z,10.60
2023-04-17T19:29:10.219Z,10.80
2023-04-17T19:31:37.972Z,10.80
2023-04-17T19:34:06.406Z,10.90
2023-04-17T19:36:33.695Z,10.90
2023-04-17T19:39:04.107Z,11.00
2023-04-17T19:41:32.334Z,10.90
2023-04-17T19:48:53.440Z,10.80
2023-04-17T19:51:21.124Z,10.80
2023-04-17T19:53:48.703Z,10.80
2023-04-17T19:56:17.310Z,10.60
2023-04-17T19:58:45.123Z,10.70
2023-04-17T20:01:12.677Z,10.50
2023-04-17T20:03:41.586Z,10.40
2023-04-17T20:08:49.826Z,10.50
2023-04-17T20:11:17.163Z,10.40
2023-04-17T20:13:44.696Z,10.40
2023-04-17T20:16:12.175Z,10.20
2023-04-17T20:18:41.376Z,10.10
2023-04-17T20:21:12.198Z,10.10
2023-04-17T20:23:40.042Z,10.30
2023-04-17T20:31:12.816Z,10.50
2023-04-17T20:33:40.780Z,10.50
2023-04-17T20:36:08.242Z,10.40
2023-04-17T20:38:35.845Z,10.50
2023-04-17T20:41:03.064Z,10.40
2023-04-17T20:43:32.639Z,10.70
2023-04-17T20:46:00.337Z,10.60
2023-04-17T20:53:34.781Z,10.70
2023-04-17T20:56:02.164Z,10.60
2023-04-17T20:58:29.542Z,10.50
2023-04-17T21:01:01.060Z,10.40
2023-04-17T21:03:30.385Z,10.50
2023-04-17T21:06:03.017Z,10.40
2023-04-17T21:08:30.620Z,10.50
2023-04-17T21:16:02.539Z,10.40
2023-04-17T21:18:35.771Z,10.50
2023-04-17T21:21:06.050Z,10.50
2023-04-17T21:23:52.367Z,10.40
2023-04-17T21:26:37.253Z,10.40
2023-04-17T21:29:19.647Z,10.20
2023-04-17T21:31:48.642Z,10.10
2023-04-17T21:34:34.083Z,9.90
2023-04-17T21:37:24.398Z,9.90
2023-04-17T21:45:19.777Z,9.80
2023-04-17T21:47:56.674Z,9.80
2023-04-17T21:50:38.869Z,9.80
2023-04-17T21:53:27.530Z,9.80
2023-04-17T21:55:57.425Z,9.70
2023-04-17T21:58:24.869Z,9.80
2023-04-17T22:01:05.135Z,9.80
2023-04-17T22:03:34.283Z,9.80
2023-04-17T22:06:11.569Z,9.90
2023-04-17T22:13:47.741Z,9.70
2023-04-17T22:16:20.760Z,9.60
2023-04-17T22:18:58.792Z,9.50
2023-04-17T22:24:09.357Z,9.80
2023-04-17T22:26:56.988Z,9.60
2023-04-17T22:29:46.027Z,9.50
2023-04-17T22:32:25.751Z,9.70
2023-04-17T22:35:17.613Z,9.60
2023-04-17T22:38:21.414Z,9.90
2023-04-17T22:45:22.532Z,10.10
2023-04-17T22:47:54.898Z,9.90
2023-04-17T22:50:23.355Z,10.10
2023-04-17T22:52:52.918Z,9.90
2023-04-17T22:55:20.509Z,9.80
2023-04-17T22:57:47.796Z,9.90
2023-04-17T23:00:20.705Z,9.90
2023-04-17T23:07:55.062Z,10.00
2023-04-17T23:10:43.710Z,9.80
2023-04-17T23:13:13.652Z,9.80
2023-04-17T23:15:40.964Z,10.00
2023-04-17T23:18:49.894Z,10.10
2023-04-17T23:21:17.227Z,10.10
2023-04-17T23:23:52.987Z,10.10
2023-04-17T23:26:21.702Z,10.10
2023-04-17T23:28:51.321Z,10.30
2023-04-17T23:36:40.854Z,10.20
2023-04-17T23:39:11.120Z,9.70
2023-04-17T23:41:41.747Z,9.50
2023-04-17T23:44:09.328Z,9.40
2023-04-17T23:46:54.608Z,9.40
2023-04-17T23:49:53.272Z,9.50
2023-04-17T23:52:46.414Z,9.30
2023-04-17T23:55:19.142Z,9.40
2023-04-17T23:58:02.226Z,9.40
